Iselin, NJ

9:49 PM EST on February 17, 2018 (GMT -0500)
iselin | | Change Station
Active Advisory: Winter Weather Advisory

Elev 49 ft 40.57 °N, 74.32 °W | Updated 8 seconds ago

Snow
Snow
32.2 °F
Feels Like 32 °F
N
0.0
Wind Variable Wind from ESE

Today
High -- | Low -- °F
--% Chance of Precip.
Yesterday
High -- | Low -- °F
Precip. -- in
Pressure 30.07 in
Visibility 3.0 miles
Clouds Overcast 200 ft
Windchill 32 °F
Dew Point 30 °F
Humidity 93%
Rainfall 0.00 in
Snow Depth Not available.
6:48 AM 5:34 PM
Waxing Crescent, 5% visible
METAR KLDJ 180235Z AUTO 00000KT 3SM -SN OVC002 00/00 A3007 RMK AO2 T00021003
Pressure 30.07 in
Visibility 3.0 miles
Clouds Overcast 200 ft
Windchill 32 °F
Dew Point 30 °F
Humidity 93%
Rainfall 0.00 in
Snow Depth Not available.
6:48 AM 5:34 PM
Waxing Crescent, 5% visible
METAR KLDJ 180235Z AUTO 00000KT 3SM -SN OVC002 00/00 A3007 RMK AO2 T00021003

Get Your Daily Forecast Email!

Thanks for signing up!

Be on the lookout for a verification email in your inbox.

You'll start receiving severe weather alerts in your inbox..

×

10-Day Weather Forecast

Almanac

Astronomy

Feb. 17, 2018 Rise Set
Actual Time
Civil Twilight
Nautical Twilight
Astronomical Twilight
Moon
Length of Visible Light
Length of Day
Tomorrow will be .
, % of the Moon is Illuminated

Today's Extremes

State Highs State Lows

Community

WunderPhotos

Category 6

Welcome to Category 6. This is the collective home for Weather Underground's featured writeups by Dr. Jeff Masters (right), Bob Henson (left), Chris Burt, and other regular contributors.

Nearby

Air Quality

  Air Quality AQ Index Pollutant
Not available.

Snow Depth

Station Depth Elevation

Earthquake Activity

City Distance Mag. Time & Date
Minimum magnitude displayed is 2.5.

Coastal Water Temperatures

Place Temperature

Stations

Nearby Weather Stations

Station Location Temp. Windchill Dew Point Humidity Wind Precip. Elev Updated Type
                   

Watches & Warnings

Winter Weather Advisory
Issued: 7:41 PM EST Feb. 17, 2018 – National Weather Service

... Winter Weather Advisory remains in effect until 4 am EST
Sunday...

* what... snow expected. Total snow accumulations of 3 to 5
inches are expected.

* Where... portions of central and northern New Jersey and
southeast Pennsylvania.

* When... until 4 am EST Sunday. The heaviest snow is expected
through the evening hours.

* Additional details... plan on difficult travel conditions. Be
prepared for reduced visibilities at times. The snow may fall
at up to an inch per hour at times in parts of the region,
which would result in rapid deteriorating Road conditions.

Precautionary/preparedness actions...

A Winter Weather Advisory for snow means periods of snow will
cause primarily travel difficulties. Be prepared for snow covered
roads and limited visibilities, and use caution while driving.
The latest Road conditions for the state you are calling from can
be obtained by calling 5 1 1.